sensor_id;sensor_type;location;lat;lon;timestamp;temperature;humidity
18153;DHT22;9202;51.578;7.734;2023-09-08T00:00:35;17.10;99.90
18153;DHT22;9202;51.578;7.734;2023-09-08T00:02:38;17.20;99.90
18153;DHT22;9202;51.578;7.734;2023-09-08T00:04:40;17.10;99.90
18153;DHT22;9202;51.578;7.734;2023-09-08T00:06:44;17.10;99.90
18153;DHT22;9202;51.578;7.734;2023-09-08T00:08:47;17.00;99.90
18153;DHT22;9202;51.578;7.734;2023-09-08T00:10:50;17.10;99.90
18153;DHT22;9202;51.578;7.734;2023-09-08T00:12:53;17.00;99.90
18153;DHT22;9202;51.578;7.734;2023-09-08T00:14:55;16.90;99.90
18153;DHT22;9202;51.578;7.734;2023-09-08T00:16:58;16.90;99.90
18153;DHT22;9202;51.578;7.734;2023-09-08T00:19:02;16.90;99.90
18153;DHT22;9202;51.578;7.734;2023-09-08T00:21:05;16.80;99.90
18153;DHT22;9202;51.578;7.734;2023-09-08T00:23:08;16.70;99.90
18153;DHT22;9202;51.578;7.734;2023-09-08T00:25:11;16.60;99.90
18153;DHT22;9202;51.578;7.734;2023-09-08T00:27:13;16.60;99.90
18153;DHT22;9202;51.578;7.734;2023-09-08T00:29:16;16.50;99.90
18153;DHT22;9202;51.578;7.734;2023-09-08T00:31:19;16.40;99.90
18153;DHT22;9202;51.578;7.734;2023-09-08T00:33:22;16.30;99.90
18153;DHT22;9202;51.578;7.734;2023-09-08T00:35:25;16.30;99.90
18153;DHT22;9202;51.578;7.734;2023-09-08T00:37:28;16.30;99.90
18153;DHT22;9202;51.578;7.734;2023-09-08T00:39:31;16.30;99.90
18153;DHT22;9202;51.578;7.734;2023-09-08T00:41:34;16.20;99.90
18153;DHT22;9202;51.578;7.734;2023-09-08T00:43:38;16.20;99.90
18153;DHT22;9202;51.578;7.734;2023-09-08T00:45:42;16.20;99.90
18153;DHT22;9202;51.578;7.734;2023-09-08T00:47:46;16.20;99.90
18153;DHT22;9202;51.578;7.734;2023-09-08T00:49:50;16.20;99.90
18153;DHT22;9202;51.578;7.734;2023-09-08T00:51:54;16.20;99.90
18153;DHT22;9202;51.578;7.734;2023-09-08T00:53:58;16.20;99.90
18153;DHT22;9202;51.578;7.734;2023-09-08T00:56:01;16.20;99.90
18153;DHT22;9202;51.578;7.734;2023-09-08T00:58:04;15.20;99.90
18153;DHT22;9202;51.578;7.734;2023-09-08T01:00:09;16.10;99.90
18153;DHT22;9202;51.578;7.734;2023-09-08T01:02:14;16.10;99.90
18153;DHT22;9202;51.578;7.734;2023-09-08T01:04:18;16.10;99.90
18153;DHT22;9202;51.578;7.734;2023-09-08T01:06:21;16.10;99.90
18153;DHT22;9202;51.578;7.734;2023-09-08T01:08:25;16.00;99.90
18153;DHT22;9202;51.578;7.734;2023-09-08T01:10:28;16.10;99.90
18153;DHT22;9202;51.578;7.734;2023-09-08T01:12:31;16.00;99.90
18153;DHT22;9202;51.578;7.734;2023-09-08T01:14:35;16.00;99.90
18153;DHT22;9202;51.578;7.734;2023-09-08T01:16:38;15.80;99.90
18153;DHT22;9202;51.578;7.734;2023-09-08T01:18:42;15.80;99.90
18153;DHT22;9202;51.578;7.734;2023-09-08T01:20:55;15.80;99.90
18153;DHT22;9202;51.578;7.734;2023-09-08T01:23:03;15.80;99.90
18153;DHT22;9202;51.578;7.734;2023-09-08T01:25:11;15.90;99.90
18153;DHT22;9202;51.578;7.734;2023-09-08T01:27:14;15.90;99.90
18153;DHT22;9202;51.578;7.734;2023-09-08T01:29:18;15.80;99.90
18153;DHT22;9202;51.578;7.734;2023-09-08T01:31:22;15.80;99.90
18153;DHT22;9202;51.578;7.734;2023-09-08T01:33:25;15.70;99.90
18153;DHT22;9202;51.578;7.734;2023-09-08T01:35:28;15.70;99.90
18153;DHT22;9202;51.578;7.734;2023-09-08T01:37:34;15.70;99.90
18153;DHT22;9202;51.578;7.734;2023-09-08T01:39:36;15.70;99.90
18153;DHT22;9202;51.578;7.734;2023-09-08T01:41:40;15.70;99.90
18153;DHT22;9202;51.578;7.734;2023-09-08T01:43:43;15.60;99.90
18153;DHT22;9202;51.578;7.734;2023-09-08T01:45:47;15.60;99.90
18153;DHT22;9202;51.578;7.734;2023-09-08T01:47:50;15.60;99.90
18153;DHT22;9202;51.578;7.734;2023-09-08T01:49:53;15.60;99.90
18153;DHT22;9202;51.578;7.734;2023-09-08T01:51:56;15.60;99.90
18153;DHT22;9202;51.578;7.734;2023-09-08T01:53:59;15.50;99.90
18153;DHT22;9202;51.578;7.734;2023-09-08T01:56:02;15.60;99.90
18153;DHT22;9202;51.578;7.734;2023-09-08T01:58:04;15.60;99.90
18153;DHT22;9202;51.578;7.734;2023-09-08T02:00:10;15.70;99.90
18153;DHT22;9202;51.578;7.734;2023-09-08T02:02:14;15.80;99.90
18153;DHT22;9202;51.578;7.734;2023-09-08T02:04:17;15.80;99.90
18153;DHT22;9202;51.578;7.734;2023-09-08T02:08:40;15.90;99.90
18153;DHT22;9202;51.578;7.734;2023-09-08T02:10:43;15.90;99.90
18153;DHT22;9202;51.578;7.734;2023-09-08T02:12:46;15.90;99.90
18153;DHT22;9202;51.578;7.734;2023-09-08T02:14:49;15.90;99.90
18153;DHT22;9202;51.578;7.734;2023-09-08T02:16:54;16.00;99.90
18153;DHT22;9202;51.578;7.734;2023-09-08T02:18:58;16.00;99.90
18153;DHT22;9202;51.578;7.734;2023-09-08T02:21:02;16.00;99.90
18153;DHT22;9202;51.578;7.734;2023-09-08T02:23:05;16.10;99.90
18153;DHT22;9202;51.578;7.734;2023-09-08T02:25:09;16.10;99.90
18153;DHT22;9202;51.578;7.734;2023-09-08T02:27:11;16.00;99.90
18153;DHT22;9202;51.578;7.734;2023-09-08T02:29:15;16.00;99.90
18153;DHT22;9202;51.578;7.734;2023-09-08T02:31:18;15.90;99.90
18153;DHT22;9202;51.578;7.734;2023-09-08T02:33:21;15.90;99.90
18153;DHT22;9202;51.578;7.734;2023-09-08T02:35:25;15.80;99.90
18153;DHT22;9202;51.578;7.734;2023-09-08T02:37:29;15.70;99.90
18153;DHT22;9202;51.578;7.734;2023-09-08T02:39:32;15.70;99.90
18153;DHT22;9202;51.578;7.734;2023-09-08T02:41:36;15.70;99.90
18153;DHT22;9202;51.578;7.734;2023-09-08T02:43:39;15.70;99.90
18153;DHT22;9202;51.578;7.734;2023-09-08T02:45:41;15.80;99.90
18153;DHT22;9202;51.578;7.734;2023-09-08T02:47:44;15.80;99.90
18153;DHT22;9202;51.578;7.734;2023-09-08T02:49:48;15.80;99.90
18153;DHT22;9202;51.578;7.734;2023-09-08T02:51:51;15.80;99.90
18153;DHT22;9202;51.578;7.734;2023-09-08T02:53:54;15.80;99.90
18153;DHT22;9202;51.578;7.734;2023-09-08T02:55:57;15.80;99.90
18153;DHT22;9202;51.578;7.734;2023-09-08T02:58:00;15.80;99.90
18153;DHT22;9202;51.578;7.734;2023-09-08T03:00:04;15.80;99.90
18153;DHT22;9202;51.578;7.734;2023-09-08T03:02:07;15.80;99.90
18153;DHT22;9202;51.578;7.734;2023-09-08T03:04:10;15.90;99.90
18153;DHT22;9202;51.578;7.734;2023-09-08T03:06:13;15.90;99.90
18153;DHT22;9202;51.578;7.734;2023-09-08T03:08:16;15.90;99.90
18153;DHT22;9202;51.578;7.734;2023-09-08T03:10:19;16.00;99.90
18153;DHT22;9202;51.578;7.734;2023-09-08T03:12:22;16.00;99.90
18153;DHT22;9202;51.578;7.734;2023-09-08T03:14:25;16.00;99.90
18153;DHT22;9202;51.578;7.734;2023-09-08T03:16:28;16.00;99.90
18153;DHT22;9202;51.578;7.734;2023-09-08T03:18:31;16.00;99.90
18153;DHT22;9202;51.578;7.734;2023-09-08T03:20:34;16.00;99.90
18153;DHT22;9202;51.578;7.734;2023-09-08T03:22:37;16.10;99.90
18153;DHT22;9202;51.578;7.734;2023-09-08T03:24:40;16.10;99.90
18153;DHT22;9202;51.578;7.734;2023-09-08T03:26:43;16.00;99.90
18153;DHT22;9202;51.578;7.734;2023-09-08T03:28:46;16.00;99.90
18153;DHT22;9202;51.578;7.734;2023-09-08T03:30:49;16.00;99.90
18153;DHT22;9202;51.578;7.734;2023-09-08T03:32:53;16.00;99.90
18153;DHT22;9202;51.578;7.734;2023-09-08T03:34:56;16.00;99.90
18153;DHT22;9202;51.578;7.734;2023-09-08T03:36:59;16.00;99.90
18153;DHT22;9202;51.578;7.734;2023-09-08T03:39:02;16.00;99.90
18153;DHT22;9202;51.578;7.734;2023-09-08T03:41:06;16.00;99.90
18153;DHT22;9202;51.578;7.734;2023-09-08T03:43:10;15.90;99.90
18153;DHT22;9202;51.578;7.734;2023-09-08T03:45:13;15.90;99.90
18153;DHT22;9202;51.578;7.734;2023-09-08T03:47:16;15.90;99.90
18153;DHT22;9202;51.578;7.734;2023-09-08T03:49:19;15.90;99.90
18153;DHT22;9202;51.578;7.734;2023-09-08T03:51:22;15.80;99.90
18153;DHT22;9202;51.578;7.734;2023-09-08T03:55:45;15.90;99.90
18153;DHT22;9202;51.578;7.734;2023-09-08T03:57:49;15.90;99.90
18153;DHT22;9202;51.578;7.734;2023-09-08T03:59:52;15.90;99.90
18153;DHT22;9202;51.578;7.734;2023-09-08T04:01:55;15.90;99.90
18153;DHT22;9202;51.578;7.734;2023-09-08T04:03:58;15.80;99.90
18153;DHT22;9202;51.578;7.734;2023-09-08T04:06:01;15.80;99.90
18153;DHT22;9202;51.578;7.734;2023-09-08T04:08:05;15.70;99.90
18153;DHT22;9202;51.578;7.734;2023-09-08T04:10:08;15.70;99.90
18153;DHT22;9202;51.578;7.734;2023-09-08T04:12:12;15.70;99.90
18153;DHT22;9202;51.578;7.734;2023-09-08T04:14:15;15.70;99.90
18153;DHT22;9202;51.578;7.734;2023-09-08T04:16:18;15.60;99.90
18153;DHT22;9202;51.578;7.734;2023-09-08T04:18:21;15.50;99.90
18153;DHT22;9202;51.578;7.734;2023-09-08T04:20:24;15.40;99.90
18153;DHT22;9202;51.578;7.734;2023-09-08T04:22:28;15.40;99.90
18153;DHT22;9202;51.578;7.734;2023-09-08T04:24:30;15.40;99.90
18153;DHT22;9202;51.578;7.734;2023-09-08T04:26:35;15.40;99.90
18153;DHT22;9202;51.578;7.734;2023-09-08T04:28:38;15.40;99.90
18153;DHT22;9202;51.578;7.734;2023-09-08T04:30:41;15.40;99.90
18153;DHT22;9202;51.578;7.734;2023-09-08T04:32:44;15.50;99.90
18153;DHT22;9202;51.578;7.734;2023-09-08T04:34:47;15.50;99.90
18153;DHT22;9202;51.578;7.734;2023-09-08T04:36:51;15.50;99.90
18153;DHT22;9202;51.578;7.734;2023-09-08T04:38:55;15.50;99.90
18153;DHT22;9202;51.578;7.734;2023-09-08T04:40:58;15.50;99.90
18153;DHT22;9202;51.578;7.734;2023-09-08T04:43:01;15.50;99.90
18153;DHT22;9202;51.578;7.734;2023-09-08T04:47:20;15.50;99.90
18153;DHT22;9202;51.578;7.734;2023-09-08T04:49:23;15.40;99.90
18153;DHT22;9202;51.578;7.734;2023-09-08T04:51:26;15.40;99.90
18153;DHT22;9202;51.578;7.734;2023-09-08T04:53:29;15.50;99.90
18153;DHT22;9202;51.578;7.734;2023-09-08T04:55:33;15.40;99.90
18153;DHT22;9202;51.578;7.734;2023-09-08T04:57:36;15.50;99.90
18153;DHT22;9202;51.578;7.734;2023-09-08T04:59:39;15.50;99.90
18153;DHT22;9202;51.578;7.734;2023-09-08T05:01:42;15.40;99.90
18153;DHT22;9202;51.578;7.734;2023-09-08T05:03:45;15.40;99.90
18153;DHT22;9202;51.578;7.734;2023-09-08T05:05:48;15.70;99.90
18153;DHT22;9202;51.578;7.734;2023-09-08T05:07:52;15.40;99.90
18153;DHT22;9202;51.578;7.734;2023-09-08T05:09:57;15.40;99.90
18153;DHT22;9202;51.578;7.734;2023-09-08T05:12:03;15.50;99.90
18153;DHT22;9202;51.578;7.734;2023-09-08T05:14:06;15.50;99.90
18153;DHT22;9202;51.578;7.734;2023-09-08T05:16:09;15.50;99.90
18153;DHT22;9202;51.578;7.734;2023-09-08T05:18:16;15.60;99.90
18153;DHT22;9202;51.578;7.734;2023-09-08T05:20:19;15.60;99.90
18153;DHT22;9202;51.578;7.734;2023-09-08T05:22:22;15.60;99.90
18153;DHT22;9202;51.578;7.734;2023-09-08T05:24:27;15.70;99.90
18153;DHT22;9202;51.578;7.734;2023-09-08T05:26:30;15.70;99.90
18153;DHT22;9202;51.578;7.734;2023-09-08T05:28:34;15.70;99.90
18153;DHT22;9202;51.578;7.734;2023-09-08T05:30:38;15.70;99.90
18153;DHT22;9202;51.578;7.734;2023-09-08T05:32:41;15.80;99.90
18153;DHT22;9202;51.578;7.734;2023-09-08T05:34:44;15.80;99.90
18153;DHT22;9202;51.578;7.734;2023-09-08T05:36:48;15.80;99.90
18153;DHT22;9202;51.578;7.734;2023-09-08T05:41:07;15.80;99.90
18153;DHT22;9202;51.578;7.734;2023-09-08T05:43:10;15.80;99.90
18153;DHT22;9202;51.578;7.734;2023-09-08T05:45:13;15.80;99.90
18153;DHT22;9202;51.578;7.734;2023-09-08T05:47:17;15.90;99.90
18153;DHT22;9202;51.578;7.734;2023-09-08T05:49:20;15.90;99.90
18153;DHT22;9202;51.578;7.734;2023-09-08T05:51:23;16.00;99.90
18153;DHT22;9202;51.578;7.734;2023-09-08T05:53:28;16.00;99.90
18153;DHT22;9202;51.578;7.734;2023-09-08T05:55:32;16.10;99.90
18153;DHT22;9202;51.578;7.734;2023-09-08T05:57:35;16.10;99.90
18153;DHT22;9202;51.578;7.734;2023-09-08T05:59:39;16.20;99.90
18153;DHT22;9202;51.578;7.734;2023-09-08T06:01:42;16.20;99.90
18153;DHT22;9202;51.578;7.734;2023-09-08T06:03:45;16.20;99.90
18153;DHT22;9202;51.578;7.734;2023-09-08T06:05:49;16.30;99.90
18153;DHT22;9202;51.578;7.734;2023-09-08T06:07:52;16.40;99.90
18153;DHT22;9202;51.578;7.734;2023-09-08T06:09:57;16.50;99.90
18153;DHT22;9202;51.578;7.734;2023-09-08T06:12:01;16.50;99.90
18153;DHT22;9202;51.578;7.734;2023-09-08T06:14:04;16.60;99.90
18153;DHT22;9202;51.578;7.734;2023-09-08T06:16:09;16.70;99.90
18153;DHT22;9202;51.578;7.734;2023-09-08T06:18:12;16.80;99.90
18153;DHT22;9202;51.578;7.734;2023-09-08T06:20:16;16.80;99.90
18153;DHT22;9202;51.578;7.734;2023-09-08T06:22:19;16.90;99.90
18153;DHT22;9202;51.578;7.734;2023-09-08T06:24:23;17.00;99.90
18153;DHT22;9202;51.578;7.734;2023-09-08T06:26:27;17.10;99.90
18153;DHT22;9202;51.578;7.734;2023-09-08T06:28:30;17.10;99.90
18153;DHT22;9202;51.578;7.734;2023-09-08T06:30:33;17.30;99.90
18153;DHT22;9202;51.578;7.734;2023-09-08T06:32:36;17.40;99.90
18153;DHT22;9202;51.578;7.734;2023-09-08T06:34:39;17.50;99.90
18153;DHT22;9202;51.578;7.734;2023-09-08T06:36:42;17.70;99.90
18153;DHT22;9202;51.578;7.734;2023-09-08T06:38:46;17.80;99.90
18153;DHT22;9202;51.578;7.734;2023-09-08T06:40:49;17.90;99.90
18153;DHT22;9202;51.578;7.734;2023-09-08T06:42:53;17.90;99.90
18153;DHT22;9202;51.578;7.734;2023-09-08T06:45:01;18.10;99.90
18153;DHT22;9202;51.578;7.734;2023-09-08T06:47:04;18.10;99.90
18153;DHT22;9202;51.578;7.734;2023-09-08T06:49:09;18.20;99.90
18153;DHT22;9202;51.578;7.734;2023-09-08T06:51:12;18.30;99.90
18153;DHT22;9202;51.578;7.734;2023-09-08T06:53:15;18.50;99.90
18153;DHT22;9202;51.578;7.734;2023-09-08T06:55:19;18.60;99.90
18153;DHT22;9202;51.578;7.734;2023-09-08T06:57:22;18.70;99.90
18153;DHT22;9202;51.578;7.734;2023-09-08T06:59:25;18.80;99.90
18153;DHT22;9202;51.578;7.734;2023-09-08T07:01:28;18.90;99.90
18153;DHT22;9202;51.578;7.734;2023-09-08T07:03:32;19.00;99.90
18153;DHT22;9202;51.578;7.734;2023-09-08T07:05:39;19.20;99.90
18153;DHT22;9202;51.578;7.734;2023-09-08T07:07:42;19.30;99.90
18153;DHT22;9202;51.578;7.734;2023-09-08T07:09:45;19.40;99.90
18153;DHT22;9202;51.578;7.734;2023-09-08T07:11:49;19.60;99.90
18153;DHT22;9202;51.578;7.734;2023-09-08T07:13:52;19.60;99.90
18153;DHT22;9202;51.578;7.734;2023-09-08T07:15:55;19.70;99.90
18153;DHT22;9202;51.578;7.734;2023-09-08T07:17:58;19.80;99.90
18153;DHT22;9202;51.578;7.734;2023-09-08T07:20:01;19.90;99.90
18153;DHT22;9202;51.578;7.734;2023-09-08T07:22:04;19.90;99.90
18153;DHT22;9202;51.578;7.734;2023-09-08T07:24:08;20.00;99.90
18153;DHT22;9202;51.578;7.734;2023-09-08T07:26:12;20.00;99.90
18153;DHT22;9202;51.578;7.734;2023-09-08T07:28:16;20.10;99.90
18153;DHT22;9202;51.578;7.734;2023-09-08T07:30:20;20.10;99.90
18153;DHT22;9202;51.578;7.734;2023-09-08T07:32:23;20.10;99.90
18153;DHT22;9202;51.578;7.734;2023-09-08T07:34:27;20.10;99.90
18153;DHT22;9202;51.578;7.734;2023-09-08T07:36:29;20.10;99.90
18153;DHT22;9202;51.578;7.734;2023-09-08T07:38:32;20.30;99.90
18153;DHT22;9202;51.578;7.734;2023-09-08T07:40:36;20.40;99.90
18153;DHT22;9202;51.578;7.734;2023-09-08T07:42:40;20.60;99.90
18153;DHT22;9202;51.578;7.734;2023-09-08T07:44:43;20.70;99.90
18153;DHT22;9202;51.578;7.734;2023-09-08T07:46:46;20.80;99.90
18153;DHT22;9202;51.578;7.734;2023-09-08T07:48:52;20.90;99.90
18153;DHT22;9202;51.578;7.734;2023-09-08T07:50:55;20.80;99.90
18153;DHT22;9202;51.578;7.734;2023-09-08T07:52:58;20.80;99.90
18153;DHT22;9202;51.578;7.734;2023-09-08T07:55:01;20.90;99.90
18153;DHT22;9202;51.578;7.734;2023-09-08T07:59:28;21.10;99.90
18153;DHT22;9202;51.578;7.734;2023-09-08T08:01:31;21.70;99.90
18153;DHT22;9202;51.578;7.734;2023-09-08T08:03:34;22.00;99.90
18153;DHT22;9202;51.578;7.734;2023-09-08T08:05:38;22.20;99.90
18153;DHT22;9202;51.578;7.734;2023-09-08T08:07:41;22.40;99.90
18153;DHT22;9202;51.578;7.734;2023-09-08T08:09:44;22.70;99.90
18153;DHT22;9202;51.578;7.734;2023-09-08T08:11:47;22.80;99.90
18153;DHT22;9202;51.578;7.734;2023-09-08T08:13:51;22.90;99.90
18153;DHT22;9202;51.578;7.734;2023-09-08T08:15:54;23.10;99.90
18153;DHT22;9202;51.578;7.734;2023-09-08T08:17:57;23.10;99.90
18153;DHT22;9202;51.578;7.734;2023-09-08T08:20:00;23.20;99.90
18153;DHT22;9202;51.578;7.734;2023-09-08T08:22:08;23.30;99.90
18153;DHT22;9202;51.578;7.734;2023-09-08T08:24:10;23.40;99.90
18153;DHT22;9202;51.578;7.734;2023-09-08T08:26:13;23.50;99.90
18153;DHT22;9202;51.578;7.734;2023-09-08T08:28:16;23.70;99.90
18153;DHT22;9202;51.578;7.734;2023-09-08T08:30:19;23.80;99.90
18153;DHT22;9202;51.578;7.734;2023-09-08T08:32:22;23.90;99.90
18153;DHT22;9202;51.578;7.734;2023-09-08T08:34:25;24.00;99.90
18153;DHT22;9202;51.578;7.734;2023-09-08T08:36:28;24.00;99.90
18153;DHT22;9202;51.578;7.734;2023-09-08T08:38:31;24.10;99.90
18153;DHT22;9202;51.578;7.734;2023-09-08T08:40:38;24.20;99.90
18153;DHT22;9202;51.578;7.734;2023-09-08T08:42:41;24.30;99.90
18153;DHT22;9202;51.578;7.734;2023-09-08T08:44:44;24.40;99.90
18153;DHT22;9202;51.578;7.734;2023-09-08T08:46:47;24.50;99.90
18153;DHT22;9202;51.578;7.734;2023-09-08T08:48:51;24.60;99.90
18153;DHT22;9202;51.578;7.734;2023-09-08T08:50:56;24.80;99.90
18153;DHT22;9202;51.578;7.734;2023-09-08T08:53:00;24.90;99.90
18153;DHT22;9202;51.578;7.734;2023-09-08T08:55:04;25.10;99.90
18153;DHT22;9202;51.578;7.734;2023-09-08T08:57:08;25.20;99.90
18153;DHT22;9202;51.578;7.734;2023-09-08T08:59:12;25.30;99.90
18153;DHT22;9202;51.578;7.734;2023-09-08T09:01:16;25.50;99.90
18153;DHT22;9202;51.578;7.734;2023-09-08T09:03:21;25.60;99.90
18153;DHT22;9202;51.578;7.734;2023-09-08T09:05:24;25.80;99.90
18153;DHT22;9202;51.578;7.734;2023-09-08T09:07:27;25.90;99.90
18153;DHT22;9202;51.578;7.734;2023-09-08T09:09:30;26.10;99.90
18153;DHT22;9202;51.578;7.734;2023-09-08T09:11:33;26.10;99.90
18153;DHT22;9202;51.578;7.734;2023-09-08T09:13:36;26.20;99.90
18153;DHT22;9202;51.578;7.734;2023-09-08T09:15:39;26.40;99.90
18153;DHT22;9202;51.578;7.734;2023-09-08T09:17:43;26.60;99.90
18153;DHT22;9202;51.578;7.734;2023-09-08T09:19:47;26.70;99.90
18153;DHT22;9202;51.578;7.734;2023-09-08T09:21:50;26.90;99.90
18153;DHT22;9202;51.578;7.734;2023-09-08T09:23:53;27.00;99.90
18153;DHT22;9202;51.578;7.734;2023-09-08T09:25:59;27.10;99.90
18153;DHT22;9202;51.578;7.734;2023-09-08T09:28:04;27.20;99.90
18153;DHT22;9202;51.578;7.734;2023-09-08T09:30:08;27.30;99.90
18153;DHT22;9202;51.578;7.734;2023-09-08T09:32:11;27.40;99.90
18153;DHT22;9202;51.578;7.734;2023-09-08T09:34:14;27.50;99.90
18153;DHT22;9202;51.578;7.734;2023-09-08T09:36:20;27.50;99.90
18153;DHT22;9202;51.578;7.734;2023-09-08T09:38:25;27.50;99.90
18153;DHT22;9202;51.578;7.734;2023-09-08T09:40:28;27.80;99.90
18153;DHT22;9202;51.578;7.734;2023-09-08T09:42:31;27.70;99.90
18153;DHT22;9202;51.578;7.734;2023-09-08T09:44:34;27.70;99.90
18153;DHT22;9202;51.578;7.734;2023-09-08T09:48:53;28.00;99.90
18153;DHT22;9202;51.578;7.734;2023-09-08T09:50:59;28.20;99.90
18153;DHT22;9202;51.578;7.734;2023-09-08T09:53:08;28.20;99.90
18153;DHT22;9202;51.578;7.734;2023-09-08T09:55:12;28.30;99.90
18153;DHT22;9202;51.578;7.734;2023-09-08T09:57:15;28.30;99.90
18153;DHT22;9202;51.578;7.734;2023-09-08T09:59:18;28.60;99.90
18153;DHT22;9202;51.578;7.734;2023-09-08T10:01:22;28.70;99.90
18153;DHT22;9202;51.578;7.734;2023-09-08T10:03:25;28.70;99.90
18153;DHT22;9202;51.578;7.734;2023-09-08T10:05:28;28.90;99.90
18153;DHT22;9202;51.578;7.734;2023-09-08T10:07:31;29.30;99.90
18153;DHT22;9202;51.578;7.734;2023-09-08T10:09:35;29.10;99.90
18153;DHT22;9202;51.578;7.734;2023-09-08T10:11:41;29.10;99.90
18153;DHT22;9202;51.578;7.734;2023-09-08T10:13:45;29.30;99.90
18153;DHT22;9202;51.578;7.734;2023-09-08T10:15:48;29.40;99.90
18153;DHT22;9202;51.578;7.734;2023-09-08T10:17:53;29.60;99.90
18153;DHT22;9202;51.578;7.734;2023-09-08T10:19:57;29.70;99.90
18153;DHT22;9202;51.578;7.734;2023-09-08T10:22:01;29.80;99.90
18153;DHT22;9202;51.578;7.734;2023-09-08T10:24:09;29.70;99.90
18153;DHT22;9202;51.578;7.734;2023-09-08T10:26:15;29.60;99.90
18153;DHT22;9202;51.578;7.734;2023-09-08T10:28:19;29.70;99.90
18153;DHT22;9202;51.578;7.734;2023-09-08T10:30:24;29.80;99.90
18153;DHT22;9202;51.578;7.734;2023-09-08T10:32:30;29.80;99.90
18153;DHT22;9202;51.578;7.734;2023-09-08T10:34:33;29.90;99.90
18153;DHT22;9202;51.578;7.734;2023-09-08T10:36:37;29.90;99.90
18153;DHT22;9202;51.578;7.734;2023-09-08T10:38:41;30.00;99.90
18153;DHT22;9202;51.578;7.734;2023-09-08T10:40:45;30.00;99.90
18153;DHT22;9202;51.578;7.734;2023-09-08T10:42:48;30.10;99.90
18153;DHT22;9202;51.578;7.734;2023-09-08T10:45:01;30.20;99.90
18153;DHT22;9202;51.578;7.734;2023-09-08T10:49:26;30.20;99.90
18153;DHT22;9202;51.578;7.734;2023-09-08T10:51:29;30.30;99.90
18153;DHT22;9202;51.578;7.734;2023-09-08T10:53:32;30.30;99.90
18153;DHT22;9202;51.578;7.734;2023-09-08T10:55:36;30.40;99.90
18153;DHT22;9202;51.578;7.734;2023-09-08T10:57:39;30.40;99.90
18153;DHT22;9202;51.578;7.734;2023-09-08T10:59:45;30.50;99.90
18153;DHT22;9202;51.578;7.734;2023-09-08T11:01:48;30.50;99.90
18153;DHT22;9202;51.578;7.734;2023-09-08T11:03:51;30.50;99.90
18153;DHT22;9202;51.578;7.734;2023-09-08T11:05:54;30.50;99.90
18153;DHT22;9202;51.578;7.734;2023-09-08T11:07:58;30.40;99.90
18153;DHT22;9202;51.578;7.734;2023-09-08T11:10:02;30.50;99.90
18153;DHT22;9202;51.578;7.734;2023-09-08T11:14:21;30.70;99.90
18153;DHT22;9202;51.578;7.734;2023-09-08T11:16:24;30.80;99.90
18153;DHT22;9202;51.578;7.734;2023-09-08T11:18:28;30.90;99.90
18153;DHT22;9202;51.578;7.734;2023-09-08T11:20:32;31.00;99.90
18153;DHT22;9202;51.578;7.734;2023-09-08T11:22:35;30.90;99.90
18153;DHT22;9202;51.578;7.734;2023-09-08T11:24:38;30.90;99.90
18153;DHT22;9202;51.578;7.734;2023-09-08T11:26:41;30.80;99.90
18153;DHT22;9202;51.578;7.734;2023-09-08T11:28:45;30.90;99.90
18153;DHT22;9202;51.578;7.734;2023-09-08T11:30:51;30.90;99.90
18153;DHT22;9202;51.578;7.734;2023-09-08T11:32:54;31.00;99.90
18153;DHT22;9202;51.578;7.734;2023-09-08T11:35:01;31.00;99.90
18153;DHT22;9202;51.578;7.734;2023-09-08T11:37:06;31.10;99.90
18153;DHT22;9202;51.578;7.734;2023-09-08T11:39:11;31.10;99.90
18153;DHT22;9202;51.578;7.734;2023-09-08T11:41:14;31.10;99.90
18153;DHT22;9202;51.578;7.734;2023-09-08T11:43:18;31.10;99.90
18153;DHT22;9202;51.578;7.734;2023-09-08T11:45:21;31.00;99.90
18153;DHT22;9202;51.578;7.734;2023-09-08T11:47:25;30.90;99.90
18153;DHT22;9202;51.578;7.734;2023-09-08T11:49:33;30.80;99.90
18153;DHT22;9202;51.578;7.734;2023-09-08T11:51:36;31.00;99.90
18153;DHT22;9202;51.578;7.734;2023-09-08T11:53:40;31.10;99.90
18153;DHT22;9202;51.578;7.734;2023-09-08T11:55:44;31.20;99.90
18153;DHT22;9202;51.578;7.734;2023-09-08T11:57:48;31.10;99.90
18153;DHT22;9202;51.578;7.734;2023-09-08T11:59:51;31.40;99.90
18153;DHT22;9202;51.578;7.734;2023-09-08T12:01:56;31.00;99.90
18153;DHT22;9202;51.578;7.734;2023-09-08T12:03:59;31.10;99.90
18153;DHT22;9202;51.578;7.734;2023-09-08T12:06:02;31.10;99.90
18153;DHT22;9202;51.578;7.734;2023-09-08T12:08:05;31.00;99.90
18153;DHT22;9202;51.578;7.734;2023-09-08T12:10:09;31.10;99.90
18153;DHT22;9202;51.578;7.734;2023-09-08T12:12:13;31.10;99.90
18153;DHT22;9202;51.578;7.734;2023-09-08T12:14:16;31.10;99.90
18153;DHT22;9202;51.578;7.734;2023-09-08T12:16:19;31.30;99.90
18153;DHT22;9202;51.578;7.734;2023-09-08T12:18:37;31.30;99.90
18153;DHT22;9202;51.578;7.734;2023-09-08T12:20:40;31.30;99.90
18153;DHT22;9202;51.578;7.734;2023-09-08T12:38:47;29.90;99.90
18153;DHT22;9202;51.578;7.734;2023-09-08T12:40:52;31.50;99.90
18153;DHT22;9202;51.578;7.734;2023-09-08T12:42:54;31.60;99.90
18153;DHT22;9202;51.578;7.734;2023-09-08T12:44:59;31.40;98.50
18153;DHT22;9202;51.578;7.734;2023-09-08T12:47:03;31.20;99.20
18153;DHT22;9202;51.578;7.734;2023-09-08T12:51:20;31.20;99.40
18153;DHT22;9202;51.578;7.734;2023-09-08T12:53:23;31.10;99.00
18153;DHT22;9202;51.578;7.734;2023-09-08T12:55:26;31.30;99.10
18153;DHT22;9202;51.578;7.734;2023-09-08T12:57:29;31.30;98.20
18153;DHT22;9202;51.578;7.734;2023-09-08T12:59:32;31.30;97.70
18153;DHT22;9202;51.578;7.734;2023-09-08T13:01:35;31.30;98.00
18153;DHT22;9202;51.578;7.734;2023-09-08T13:03:38;31.30;97.60
18153;DHT22;9202;51.578;7.734;2023-09-08T13:05:41;31.30;98.30
18153;DHT22;9202;51.578;7.734;2023-09-08T13:07:44;31.30;97.50
18153;DHT22;9202;51.578;7.734;2023-09-08T13:09:47;31.30;98.60
18153;DHT22;9202;51.578;7.734;2023-09-08T13:11:50;31.20;98.00
18153;DHT22;9202;51.578;7.734;2023-09-08T13:13:54;31.30;98.60
18153;DHT22;9202;51.578;7.734;2023-09-08T13:15:57;31.10;97.40
18153;DHT22;9202;51.578;7.734;2023-09-08T13:18:00;31.10;97.40
18153;DHT22;9202;51.578;7.734;2023-09-08T13:20:03;31.20;97.50
18153;DHT22;9202;51.578;7.734;2023-09-08T13:22:06;31.20;97.60
18153;DHT22;9202;51.578;7.734;2023-09-08T13:24:09;31.20;97.20
18153;DHT22;9202;51.578;7.734;2023-09-08T13:26:13;31.30;96.80
18153;DHT22;9202;51.578;7.734;2023-09-08T13:28:15;31.30;97.80
18153;DHT22;9202;51.578;7.734;2023-09-08T13:30:18;31.40;99.90
18153;DHT22;9202;51.578;7.734;2023-09-08T13:32:23;31.40;96.90
18153;DHT22;9202;51.578;7.734;2023-09-08T13:34:28;31.30;96.40
18153;DHT22;9202;51.578;7.734;2023-09-08T13:36:31;31.30;98.00
18153;DHT22;9202;51.578;7.734;2023-09-08T13:38:34;31.30;96.50
18153;DHT22;9202;51.578;7.734;2023-09-08T13:40:39;31.40;96.90
18153;DHT22;9202;51.578;7.734;2023-09-08T13:42:43;31.40;96.40
18153;DHT22;9202;51.578;7.734;2023-09-08T13:44:46;31.40;96.20
18153;DHT22;9202;51.578;7.734;2023-09-08T13:46:49;31.50;98.30
18153;DHT22;9202;51.578;7.734;2023-09-08T13:48:53;31.50;96.10